sensor_id;sensor_type;location;lat;lon;timestamp;P1;P2;P0
31163;PMS5003;17796;49.296;-117.656;2023-03-31T00:14:26;10;8;
31163;PMS5003;17796;49.296;-117.656;2023-03-31T00:29:30;10;10;
31163;PMS5003;17796;49.296;-117.656;2023-03-31T00:44:37;8;8;
31163;PMS5003;17796;49.296;-117.656;2023-03-31T00:59:45;14;10;
31163;PMS5003;17796;49.296;-117.656;2023-03-31T01:14:50;12;12;
31163;PMS5003;17796;49.296;-117.656;2023-03-31T01:30:17;16;11;
31163;PMS5003;17796;49.296;-117.656;2023-03-31T01:45:35;13;10;
31163;PMS5003;17796;49.296;-117.656;2023-03-31T02:00:42;37;23;
31163;PMS5003;17796;49.296;-117.656;2023-03-31T02:15:51;16;15;
31163;PMS5003;17796;49.296;-117.656;2023-03-31T02:31:06;17;12;
31163;PMS5003;17796;49.296;-117.656;2023-03-31T02:46:12;22;18;
31163;PMS5003;17796;49.296;-117.656;2023-03-31T03:01:28;10;10;
31163;PMS5003;17796;49.296;-117.656;2023-03-31T03:16:38;12;11;
31163;PMS5003;17796;49.296;-117.656;2023-03-31T03:31:43;11;10;
31163;PMS5003;17796;49.296;-117.656;2023-03-31T03:46:47;15;9;
31163;PMS5003;17796;49.296;-117.656;2023-03-31T04:01:51;9;7;
31163;PMS5003;17796;49.296;-117.656;2023-03-31T04:16:54;7;7;
31163;PMS5003;17796;49.296;-117.656;2023-03-31T04:31:58;7;7;
31163;PMS5003;17796;49.296;-117.656;2023-03-31T04:47:02;8;6;
31163;PMS5003;17796;49.296;-117.656;2023-03-31T05:02:06;5;3;
31163;PMS5003;17796;49.296;-117.656;2023-03-31T05:17:10;2;1;
31163;PMS5003;17796;49.296;-117.656;2023-03-31T05:32:13;5;5;
31163;PMS5003;17796;49.296;-117.656;2023-03-31T05:47:17;4;4;
31163;PMS5003;17796;49.296;-117.656;2023-03-31T06:02:21;8;7;
31163;PMS5003;17796;49.296;-117.656;2023-03-31T06:17:24;9;6;
31163;PMS5003;17796;49.296;-117.656;2023-03-31T06:32:28;10;7;
31163;PMS5003;17796;49.296;-117.656;2023-03-31T06:47:32;5;4;
31163;PMS5003;17796;49.296;-117.656;2023-03-31T07:02:35;5;5;
31163;PMS5003;17796;49.296;-117.656;2023-03-31T07:17:39;4;4;
31163;PMS5003;17796;49.296;-117.656;2023-03-31T07:32:45;3;3;
31163;PMS5003;17796;49.296;-117.656;2023-03-31T07:47:49;3;2;
31163;PMS5003;17796;49.296;-117.656;2023-03-31T08:02:52;2;2;
31163;PMS5003;17796;49.296;-117.656;2023-03-31T08:17:55;1;1;
31163;PMS5003;17796;49.296;-117.656;2023-03-31T08:32:59;2;2;
31163;PMS5003;17796;49.296;-117.656;2023-03-31T08:48:05;2;2;
31163;PMS5003;17796;49.296;-117.656;2023-03-31T09:03:16;2;2;
31163;PMS5003;17796;49.296;-117.656;2023-03-31T09:18:30;2;2;
31163;PMS5003;17796;49.296;-117.656;2023-03-31T09:33:34;2;0;
31163;PMS5003;17796;49.296;-117.656;2023-03-31T09:48:39;0;0;
31163;PMS5003;17796;49.296;-117.656;2023-03-31T10:03:50;1;1;
31163;PMS5003;17796;49.296;-117.656;2023-03-31T10:18:55;2;2;
31163;PMS5003;17796;49.296;-117.656;2023-03-31T10:34:15;3;2;
31163;PMS5003;17796;49.296;-117.656;2023-03-31T10:49:25;2;2;
31163;PMS5003;17796;49.296;-117.656;2023-03-31T11:04:44;2;2;
31163;PMS5003;17796;49.296;-117.656;2023-03-31T11:19:58;2;2;
31163;PMS5003;17796;49.296;-117.656;2023-03-31T11:35:22;2;2;
31163;PMS5003;17796;49.296;-117.656;2023-03-31T11:50:36;3;3;
31163;PMS5003;17796;49.296;-117.656;2023-03-31T12:05:45;2;2;
31163;PMS5003;17796;49.296;-117.656;2023-03-31T12:20:51;24;22;
31163;PMS5003;17796;49.296;-117.656;2023-03-31T12:36:08;5;4;
31163;PMS5003;17796;49.296;-117.656;2023-03-31T12:51:27;4;4;
31163;PMS5003;17796;49.296;-117.656;2023-03-31T13:06:53;5;1;
31163;PMS5003;17796;49.296;-117.656;2023-03-31T13:21:59;4;3;
31163;PMS5003;17796;49.296;-117.656;2023-03-31T13:37:14;3;3;
31163;PMS5003;17796;49.296;-117.656;2023-03-31T13:52:32;2;2;
31163;PMS5003;17796;49.296;-117.656;2023-03-31T14:07:43;3;3;
31163;PMS5003;17796;49.296;-117.656;2023-03-31T14:22:54;8;7;
31163;PMS5003;17796;49.296;-117.656;2023-03-31T14:38:04;11;10;
31163;PMS5003;17796;49.296;-117.656;2023-03-31T14:53:14;4;3;
31163;PMS5003;17796;49.296;-117.656;2023-03-31T15:08:20;9;4;
31163;PMS5003;17796;49.296;-117.656;2023-03-31T15:23:27;5;4;
31163;PMS5003;17796;49.296;-117.656;2023-03-31T15:38:30;9;5;
31163;PMS5003;17796;49.296;-117.656;2023-03-31T15:53:37;2;2;
31163;PMS5003;17796;49.296;-117.656;2023-03-31T16:08:49;4;4;
31163;PMS5003;17796;49.296;-117.656;2023-03-31T16:23:57;5;3;
31163;PMS5003;17796;49.296;-117.656;2023-03-31T16:39:02;4;4;
31163;PMS5003;17796;49.296;-117.656;2023-03-31T16:54:07;3;3;
31163;PMS5003;17796;49.296;-117.656;2023-03-31T17:09:10;7;5;
31163;PMS5003;17796;49.296;-117.656;2023-03-31T17:24:13;7;7;
31163;PMS5003;17796;49.296;-117.656;2023-03-31T17:39:18;14;13;
31163;PMS5003;17796;49.296;-117.656;2023-03-31T17:54:21;15;14;
31163;PMS5003;17796;49.296;-117.656;2023-03-31T18:09:25;20;18;
31163;PMS5003;17796;49.296;-117.656;2023-03-31T18:24:28;13;13;
31163;PMS5003;17796;49.296;-117.656;2023-03-31T18:39:32;15;14;
31163;PMS5003;17796;49.296;-117.656;2023-03-31T18:54:36;17;13;
31163;PMS5003;17796;49.296;-117.656;2023-03-31T19:09:39;18;17;
31163;PMS5003;17796;49.296;-117.656;2023-03-31T19:24:43;27;25;
31163;PMS5003;17796;49.296;-117.656;2023-03-31T19:39:47;17;16;
31163;PMS5003;17796;49.296;-117.656;2023-03-31T19:54:50;18;13;
31163;PMS5003;17796;49.296;-117.656;2023-03-31T20:09:54;8;6;
31163;PMS5003;17796;49.296;-117.656;2023-03-31T20:25:03;6;6;
31163;PMS5003;17796;49.296;-117.656;2023-03-31T20:40:08;5;5;
31163;PMS5003;17796;49.296;-117.656;2023-03-31T20:55:13;8;7;
31163;PMS5003;17796;49.296;-117.656;2023-03-31T21:10:16;10;8;
31163;PMS5003;17796;49.296;-117.656;2023-03-31T21:25:20;10;7;
31163;PMS5003;17796;49.296;-117.656;2023-03-31T21:40:24;10;7;
31163;PMS5003;17796;49.296;-117.656;2023-03-31T21:55:28;10;7;
31163;PMS5003;17796;49.296;-117.656;2023-03-31T22:10:31;11;11;
31163;PMS5003;17796;49.296;-117.656;2023-03-31T22:25:35;12;11;
31163;PMS5003;17796;49.296;-117.656;2023-03-31T22:40:39;12;11;
31163;PMS5003;17796;49.296;-117.656;2023-03-31T22:55:43;12;12;
31163;PMS5003;17796;49.296;-117.656;2023-03-31T23:10:54;12;11;
31163;PMS5003;17796;49.296;-117.656;2023-03-31T23:26:00;12;10;
31163;PMS5003;17796;49.296;-117.656;2023-03-31T23:41:04;15;13;
31163;PMS5003;17796;49.296;-117.656;2023-03-31T23:56:10;15;11;
